sensor_id;sensor_type;location;lat;lon;timestamp;pressure;altitude;pressure_sealevel;temperature;humidity
13124;BME280;6627;50.920;12.050;2023-08-31T00:00:54;98221.16;;;25.95;44.96
13124;BME280;6627;50.920;12.050;2023-08-31T00:03:23;98240.34;;;25.82;45.54
13124;BME280;6627;50.920;12.050;2023-08-31T00:05:51;98188.66;;;25.61;45.22
13124;BME280;6627;50.920;12.050;2023-08-31T00:08:19;98200.28;;;25.49;45.71
13124;BME280;6627;50.920;12.050;2023-08-31T00:10:56;98222.94;;;25.44;45.96
13124;BME280;6627;50.920;12.050;2023-08-31T00:13:25;98224.31;;;25.25;46.52
13124;BME280;6627;50.920;12.050;2023-08-31T00:15:55;98278.84;;;26.10;45.12
13124;BME280;6627;50.920;12.050;2023-08-31T00:18:24;98239.78;;;26.25;43.90
13124;BME280;6627;50.920;12.050;2023-08-31T00:20:52;98225.50;;;25.61;45.19
13124;BME280;6627;50.920;12.050;2023-08-31T00:23:20;98322.81;;;25.81;46.13
13124;BME280;6627;50.920;12.050;2023-08-31T00:25:48;98312.44;;;25.85;45.54
13124;BME280;6627;50.920;12.050;2023-08-31T00:28:20;98294.69;;;26.10;44.93
13124;BME280;6627;50.920;12.050;2023-08-31T00:30:49;98301.47;;;26.09;44.87
13124;BME280;6627;50.920;12.050;2023-08-31T00:33:16;98264.59;;;25.74;44.91
13124;BME280;6627;50.920;12.050;2023-08-31T00:35:44;98304.78;;;26.27;44.53
13124;BME280;6627;50.920;12.050;2023-08-31T00:38:11;98297.13;;;25.32;46.79
13124;BME280;6627;50.920;12.050;2023-08-31T00:40:40;98342.34;;;26.05;45.66
13124;BME280;6627;50.920;12.050;2023-08-31T00:43:08;98302.84;;;26.55;43.29
13124;BME280;6627;50.920;12.050;2023-08-31T00:45:37;98256.66;;;25.76;44.71
13124;BME280;6627;50.920;12.050;2023-08-31T00:48:08;98292.88;;;26.30;43.84
13124;BME280;6627;50.920;12.050;2023-08-31T00:50:35;98236.13;;;26.01;43.34
13124;BME280;6627;50.920;12.050;2023-08-31T00:53:03;98229.09;;;25.92;43.12
13124;BME280;6627;50.920;12.050;2023-08-31T00:55:32;98240.13;;;25.28;45.30
13124;BME280;6627;50.920;12.050;2023-08-31T00:57:59;98300.66;;;25.74;44.81
13124;BME280;6627;50.920;12.050;2023-08-31T01:00:33;98233.75;;;25.31;44.81
13124;BME280;6627;50.920;12.050;2023-08-31T01:03:13;98322.63;;;25.96;44.58
13124;BME280;6627;50.920;12.050;2023-08-31T01:05:52;98254.88;;;25.59;44.12
13124;BME280;6627;50.920;12.050;2023-08-31T01:08:30;98262.50;;;25.85;43.70
13124;BME280;6627;50.920;12.050;2023-08-31T01:11:07;98224.13;;;25.42;44.23
13124;BME280;6627;50.920;12.050;2023-08-31T01:13:41;98199.66;;;24.92;44.83
13124;BME280;6627;50.920;12.050;2023-08-31T01:16:09;98258.31;;;25.32;44.78
13124;BME280;6627;50.920;12.050;2023-08-31T01:18:40;98303.41;;;26.12;43.83
13124;BME280;6627;50.920;12.050;2023-08-31T01:21:12;98207.00;;;25.13;44.95
13124;BME280;6627;50.920;12.050;2023-08-31T01:23:51;98233.53;;;25.52;44.43
13124;BME280;6627;50.920;12.050;2023-08-31T01:26:20;98288.34;;;26.13;43.48
13124;BME280;6627;50.920;12.050;2023-08-31T01:28:49;98207.50;;;25.42;43.66
13124;BME280;6627;50.920;12.050;2023-08-31T01:31:18;98224.00;;;24.71;45.70
13124;BME280;6627;50.920;12.050;2023-08-31T01:33:47;98253.00;;;25.04;45.65
13124;BME280;6627;50.920;12.050;2023-08-31T01:36:20;98147.88;;;23.82;46.66
13124;BME280;6627;50.920;12.050;2023-08-31T01:38:58;98266.66;;;24.80;46.14
13124;BME280;6627;50.920;12.050;2023-08-31T01:41:31;98279.47;;;25.53;44.54
13124;BME280;6627;50.920;12.050;2023-08-31T01:44:02;98201.28;;;24.34;45.86
13124;BME280;6627;50.920;12.050;2023-08-31T01:46:31;98248.50;;;24.72;45.73
13124;BME280;6627;50.920;12.050;2023-08-31T01:48:59;98214.75;;;24.32;45.96
13124;BME280;6627;50.920;12.050;2023-08-31T01:51:27;98210.34;;;23.58;48.04
13124;BME280;6627;50.920;12.050;2023-08-31T01:53:56;98203.09;;;24.00;46.93
13124;BME280;6627;50.920;12.050;2023-08-31T01:56:25;98232.22;;;24.22;47.09
13124;BME280;6627;50.920;12.050;2023-08-31T01:58:53;98180.38;;;23.46;48.01
13124;BME280;6627;50.920;12.050;2023-08-31T02:01:20;98359.25;;;25.38;45.92
13124;BME280;6627;50.920;12.050;2023-08-31T02:03:48;98340.44;;;25.57;44.60
13124;BME280;6627;50.920;12.050;2023-08-31T02:06:16;98318.25;;;26.29;43.21
13124;BME280;6627;50.920;12.050;2023-08-31T02:08:44;98215.75;;;24.60;45.60
13124;BME280;6627;50.920;12.050;2023-08-31T02:11:15;98328.53;;;25.60;44.52
13124;BME280;6627;50.920;12.050;2023-08-31T02:13:43;98227.88;;;24.80;45.40
13124;BME280;6627;50.920;12.050;2023-08-31T02:16:11;98285.66;;;24.78;46.53
13124;BME280;6627;50.920;12.050;2023-08-31T02:18:39;98345.44;;;25.31;45.53
13124;BME280;6627;50.920;12.050;2023-08-31T02:21:06;98326.94;;;24.55;46.57
13124;BME280;6627;50.920;12.050;2023-08-31T02:23:34;98328.22;;;25.06;45.29
13124;BME280;6627;50.920;12.050;2023-08-31T02:26:02;98342.59;;;25.38;45.23
13124;BME280;6627;50.920;12.050;2023-08-31T02:28:32;98339.25;;;25.13;45.49
13124;BME280;6627;50.920;12.050;2023-08-31T02:31:02;98333.19;;;25.29;45.19
13124;BME280;6627;50.920;12.050;2023-08-31T02:33:30;98292.56;;;25.08;45.37
13124;BME280;6627;50.920;12.050;2023-08-31T02:35:58;98340.44;;;25.57;44.82
13124;BME280;6627;50.920;12.050;2023-08-31T02:38:26;98353.50;;;25.60;44.61
13124;BME280;6627;50.920;12.050;2023-08-31T02:40:54;98392.78;;;25.55;45.23
13124;BME280;6627;50.920;12.050;2023-08-31T02:43:22;98366.22;;;25.99;44.00
13124;BME280;6627;50.920;12.050;2023-08-31T02:45:59;98328.75;;;26.14;42.95
13124;BME280;6627;50.920;12.050;2023-08-31T02:48:27;98348.22;;;26.45;43.01
13124;BME280;6627;50.920;12.050;2023-08-31T02:50:57;98288.22;;;26.20;42.59
13124;BME280;6627;50.920;12.050;2023-08-31T02:53:27;98396.16;;;26.83;42.79
13124;BME280;6627;50.920;12.050;2023-08-31T02:55:56;98291.91;;;26.40;42.13
13124;BME280;6627;50.920;12.050;2023-08-31T02:58:24;98354.50;;;26.79;42.51
13124;BME280;6627;50.920;12.050;2023-08-31T03:00:54;98294.63;;;26.17;42.90
13124;BME280;6627;50.920;12.050;2023-08-31T03:03:22;98280.13;;;25.68;43.90
13124;BME280;6627;50.920;12.050;2023-08-31T03:05:55;98294.13;;;25.91;43.06
13124;BME280;6627;50.920;12.050;2023-08-31T03:08:24;98208.63;;;25.83;42.34
13124;BME280;6627;50.920;12.050;2023-08-31T03:10:52;98246.47;;;26.00;42.56
13124;BME280;6627;50.920;12.050;2023-08-31T03:13:20;98288.50;;;26.29;41.89
13124;BME280;6627;50.920;12.050;2023-08-31T03:15:47;98298.31;;;26.07;42.62
13124;BME280;6627;50.920;12.050;2023-08-31T03:18:17;98232.19;;;25.30;43.53
13124;BME280;6627;50.920;12.050;2023-08-31T03:20:45;98268.38;;;25.12;44.54
13124;BME280;6627;50.920;12.050;2023-08-31T03:23:13;98291.56;;;25.32;44.02
13124;BME280;6627;50.920;12.050;2023-08-31T03:25:41;98195.69;;;24.49;44.51
13124;BME280;6627;50.920;12.050;2023-08-31T03:28:09;98256.34;;;24.84;44.17
13124;BME280;6627;50.920;12.050;2023-08-31T03:30:38;98299.81;;;24.91;44.80
13124;BME280;6627;50.920;12.050;2023-08-31T03:33:06;98251.13;;;24.38;45.42
13124;BME280;6627;50.920;12.050;2023-08-31T03:35:36;98334.72;;;25.33;44.34
13124;BME280;6627;50.920;12.050;2023-08-31T03:38:04;98197.03;;;23.24;47.45
13124;BME280;6627;50.920;12.050;2023-08-31T03:40:32;98296.19;;;24.38;45.79
13124;BME280;6627;50.920;12.050;2023-08-31T03:43:00;98236.44;;;23.50;47.21
13124;BME280;6627;50.920;12.050;2023-08-31T03:45:27;98271.56;;;23.74;47.14
13124;BME280;6627;50.920;12.050;2023-08-31T03:47:55;98285.38;;;25.14;43.78
13124;BME280;6627;50.920;12.050;2023-08-31T03:50:25;98374.97;;;24.97;44.83
13124;BME280;6627;50.920;12.050;2023-08-31T03:52:54;98319.28;;;24.80;44.75
13124;BME280;6627;50.920;12.050;2023-08-31T03:55:22;98268.44;;;24.53;44.49
13124;BME280;6627;50.920;12.050;2023-08-31T03:57:50;98321.69;;;25.30;43.50
13124;BME280;6627;50.920;12.050;2023-08-31T04:00:18;98323.44;;;25.55;42.81
13124;BME280;6627;50.920;12.050;2023-08-31T04:02:46;98366.47;;;25.70;43.52
13124;BME280;6627;50.920;12.050;2023-08-31T04:05:13;98267.31;;;24.95;43.44
13124;BME280;6627;50.920;12.050;2023-08-31T04:07:42;98306.44;;;25.01;43.51
13124;BME280;6627;50.920;12.050;2023-08-31T04:10:12;98380.47;;;26.01;42.06
13124;BME280;6627;50.920;12.050;2023-08-31T04:12:41;98311.50;;;25.58;42.37
13124;BME280;6627;50.920;12.050;2023-08-31T04:15:11;98298.22;;;25.42;42.65
13124;BME280;6627;50.920;12.050;2023-08-31T04:17:42;98316.31;;;25.09;43.39
13124;BME280;6627;50.920;12.050;2023-08-31T04:20:11;98205.63;;;23.65;44.60
13124;BME280;6627;50.920;12.050;2023-08-31T04:22:42;98309.22;;;25.49;42.87
13124;BME280;6627;50.920;12.050;2023-08-31T04:25:12;98223.22;;;25.53;41.64
13124;BME280;6627;50.920;12.050;2023-08-31T04:27:41;98308.06;;;25.47;42.96
13124;BME280;6627;50.920;12.050;2023-08-31T04:30:11;98302.41;;;25.16;43.74
13124;BME280;6627;50.920;12.050;2023-08-31T04:32:39;98307.31;;;25.42;42.92
13124;BME280;6627;50.920;12.050;2023-08-31T04:35:07;98291.19;;;24.78;44.16
13124;BME280;6627;50.920;12.050;2023-08-31T04:37:36;98226.41;;;23.99;44.69
13124;BME280;6627;50.920;12.050;2023-08-31T04:40:05;98254.47;;;23.94;44.89
13124;BME280;6627;50.920;12.050;2023-08-31T04:42:36;98295.13;;;24.84;43.43
13124;BME280;6627;50.920;12.050;2023-08-31T04:45:05;98326.56;;;25.15;43.17
13124;BME280;6627;50.920;12.050;2023-08-31T04:47:39;98227.13;;;24.76;42.80
13124;BME280;6627;50.920;12.050;2023-08-31T04:50:08;98257.22;;;24.71;43.41
13124;BME280;6627;50.920;12.050;2023-08-31T04:52:38;98351.38;;;25.78;42.24
13124;BME280;6627;50.920;12.050;2023-08-31T04:55:07;98298.88;;;25.12;42.89
13124;BME280;6627;50.920;12.050;2023-08-31T04:57:36;98324.56;;;25.61;41.93
13124;BME280;6627;50.920;12.050;2023-08-31T05:00:06;98329.28;;;25.64;41.81
13124;BME280;6627;50.920;12.050;2023-08-31T05:02:45;98343.84;;;25.30;43.19
13124;BME280;6627;50.920;12.050;2023-08-31T05:05:13;98365.91;;;25.45;43.04
13124;BME280;6627;50.920;12.050;2023-08-31T05:07:41;98290.25;;;24.96;42.99
13124;BME280;6627;50.920;12.050;2023-08-31T05:10:10;98294.06;;;24.64;43.44
13124;BME280;6627;50.920;12.050;2023-08-31T05:12:42;98309.66;;;24.29;44.51
13124;BME280;6627;50.920;12.050;2023-08-31T05:15:11;98319.94;;;24.32;44.67
13124;BME280;6627;50.920;12.050;2023-08-31T05:17:41;98287.78;;;23.47;45.92
13124;BME280;6627;50.920;12.050;2023-08-31T05:20:13;98259.00;;;22.59;47.42
13124;BME280;6627;50.920;12.050;2023-08-31T05:22:40;98382.44;;;24.23;45.51
13124;BME280;6627;50.920;12.050;2023-08-31T05:25:08;98327.28;;;23.65;46.11
13124;BME280;6627;50.920;12.050;2023-08-31T05:27:39;98366.09;;;24.57;44.58
13124;BME280;6627;50.920;12.050;2023-08-31T05:30:09;98384.03;;;25.08;43.62
13124;BME280;6627;50.920;12.050;2023-08-31T05:32:40;98403.66;;;25.31;43.18
13124;BME280;6627;50.920;12.050;2023-08-31T05:35:09;98440.41;;;25.42;43.37
13124;BME280;6627;50.920;12.050;2023-08-31T05:37:37;98367.97;;;24.74;43.66
13124;BME280;6627;50.920;12.050;2023-08-31T05:40:06;98389.09;;;25.20;43.09
13124;BME280;6627;50.920;12.050;2023-08-31T05:42:37;98372.97;;;24.16;45.23
13124;BME280;6627;50.920;12.050;2023-08-31T05:45:06;98358.47;;;23.55;46.16
13124;BME280;6627;50.920;12.050;2023-08-31T05:47:36;98444.34;;;24.75;44.84
13124;BME280;6627;50.920;12.050;2023-08-31T05:50:05;98407.03;;;24.98;43.68
13124;BME280;6627;50.920;12.050;2023-08-31T05:52:33;98469.84;;;25.22;43.88
13124;BME280;6627;50.920;12.050;2023-08-31T05:55:02;98413.38;;;24.95;44.11
13124;BME280;6627;50.920;12.050;2023-08-31T05:57:32;98417.47;;;24.69;44.69
13124;BME280;6627;50.920;12.050;2023-08-31T06:00:02;98395.81;;;24.49;44.95
13124;BME280;6627;50.920;12.050;2023-08-31T06:02:30;98451.97;;;24.42;45.51
13124;BME280;6627;50.920;12.050;2023-08-31T06:04:59;98459.88;;;24.55;45.53
13124;BME280;6627;50.920;12.050;2023-08-31T06:07:27;98426.66;;;24.48;44.92
13124;BME280;6627;50.920;12.050;2023-08-31T06:09:55;98470.56;;;25.33;43.76
13124;BME280;6627;50.920;12.050;2023-08-31T06:12:25;98362.81;;;23.60;46.01
13124;BME280;6627;50.920;12.050;2023-08-31T06:14:55;98521.19;;;25.45;44.15
13124;BME280;6627;50.920;12.050;2023-08-31T06:17:24;98461.03;;;25.41;43.32
13124;BME280;6627;50.920;12.050;2023-08-31T06:19:52;98405.31;;;24.45;44.82
13124;BME280;6627;50.920;12.050;2023-08-31T06:22:21;98480.13;;;25.25;44.05
13124;BME280;6627;50.920;12.050;2023-08-31T06:24:50;98416.16;;;24.95;43.51
13124;BME280;6627;50.920;12.050;2023-08-31T06:27:19;98534.44;;;25.85;43.50
13124;BME280;6627;50.920;12.050;2023-08-31T06:29:46;98507.56;;;25.68;43.46
13124;BME280;6627;50.920;12.050;2023-08-31T06:32:15;98476.78;;;25.52;43.26
13124;BME280;6627;50.920;12.050;2023-08-31T06:34:44;98524.16;;;25.72;43.44
13124;BME280;6627;50.920;12.050;2023-08-31T06:37:12;98490.25;;;26.47;41.36
13124;BME280;6627;50.920;12.050;2023-08-31T06:39:41;98438.22;;;25.12;43.79
13124;BME280;6627;50.920;12.050;2023-08-31T06:42:09;98407.25;;;24.55;44.34
13124;BME280;6627;50.920;12.050;2023-08-31T06:44:37;98541.13;;;26.33;42.25
13124;BME280;6627;50.920;12.050;2023-08-31T06:47:05;98478.19;;;25.74;43.04
13124;BME280;6627;50.920;12.050;2023-08-31T06:49:34;98439.06;;;25.06;43.70
13124;BME280;6627;50.920;12.050;2023-08-31T06:52:04;98549.78;;;26.46;42.13
13124;BME280;6627;50.920;12.050;2023-08-31T06:54:34;98491.72;;;26.17;41.77
13124;BME280;6627;50.920;12.050;2023-08-31T06:57:03;98476.50;;;25.91;42.09
13124;BME280;6627;50.920;12.050;2023-08-31T06:59:31;98459.75;;;25.50;42.77
13124;BME280;6627;50.920;12.050;2023-08-31T07:01:59;98483.47;;;26.06;41.88
13124;BME280;6627;50.920;12.050;2023-08-31T07:04:27;98509.47;;;26.27;41.80
13124;BME280;6627;50.920;12.050;2023-08-31T07:06:54;98408.41;;;25.79;41.55
13124;BME280;6627;50.920;12.050;2023-08-31T07:09:21;98418.81;;;25.68;41.22
13124;BME280;6627;50.920;12.050;2023-08-31T07:11:48;98358.94;;;25.26;41.09
13124;BME280;6627;50.920;12.050;2023-08-31T07:14:17;98499.88;;;26.35;41.05
13124;BME280;6627;50.920;12.050;2023-08-31T07:16:44;98443.47;;;25.59;42.27
13124;BME280;6627;50.920;12.050;2023-08-31T07:19:12;98486.97;;;26.55;40.87
13124;BME280;6627;50.920;12.050;2023-08-31T07:21:39;98450.97;;;26.07;41.11
13124;BME280;6627;50.920;12.050;2023-08-31T07:24:07;98417.38;;;25.94;40.94
13124;BME280;6627;50.920;12.050;2023-08-31T07:26:34;98402.75;;;25.45;41.40
13124;BME280;6627;50.920;12.050;2023-08-31T07:29:02;98356.44;;;24.86;42.07
13124;BME280;6627;50.920;12.050;2023-08-31T07:31:32;98365.22;;;25.33;41.27
13124;BME280;6627;50.920;12.050;2023-08-31T07:33:59;98392.63;;;25.69;40.63
13124;BME280;6627;50.920;12.050;2023-08-31T07:36:26;98419.50;;;25.79;40.83
13124;BME280;6627;50.920;12.050;2023-08-31T07:38:53;98373.59;;;25.71;40.26
13124;BME280;6627;50.920;12.050;2023-08-31T07:41:21;98491.22;;;26.67;39.85
13124;BME280;6627;50.920;12.050;2023-08-31T07:43:48;98418.63;;;26.27;39.97
13124;BME280;6627;50.920;12.050;2023-08-31T07:46:17;98460.13;;;26.45;39.87
13124;BME280;6627;50.920;12.050;2023-08-31T07:48:46;98377.69;;;25.59;40.72
13124;BME280;6627;50.920;12.050;2023-08-31T07:51:14;98366.28;;;25.91;39.40
13124;BME280;6627;50.920;12.050;2023-08-31T07:53:42;98405.72;;;26.10;39.89
13124;BME280;6627;50.920;12.050;2023-08-31T07:56:09;98458.09;;;26.49;39.87
13124;BME280;6627;50.920;12.050;2023-08-31T07:58:37;98261.66;;;25.13;40.39
13124;BME280;6627;50.920;12.050;2023-08-31T08:01:05;98384.28;;;26.14;39.36
13124;BME280;6627;50.920;12.050;2023-08-31T08:03:32;98325.78;;;25.98;38.94
13124;BME280;6627;50.920;12.050;2023-08-31T08:06:01;98356.38;;;26.25;38.39
13124;BME280;6627;50.920;12.050;2023-08-31T08:08:29;98403.72;;;26.14;39.71
13124;BME280;6627;50.920;12.050;2023-08-31T08:10:56;98367.44;;;26.28;38.84
13124;BME280;6627;50.920;12.050;2023-08-31T08:13:25;98490.28;;;27.08;38.69
13124;BME280;6627;50.920;12.050;2023-08-31T08:15:53;98388.00;;;26.34;38.43
13124;BME280;6627;50.920;12.050;2023-08-31T08:18:20;98448.78;;;26.63;38.95
13124;BME280;6627;50.920;12.050;2023-08-31T08:20:48;98353.00;;;26.44;37.85
13124;BME280;6627;50.920;12.050;2023-08-31T08:23:17;98417.22;;;27.11;37.81
13124;BME280;6627;50.920;12.050;2023-08-31T08:25:44;98420.72;;;27.15;37.43
13124;BME280;6627;50.920;12.050;2023-08-31T08:28:11;98382.88;;;27.21;36.67
13124;BME280;6627;50.920;12.050;2023-08-31T08:30:39;98271.78;;;26.02;38.19
13124;BME280;6627;50.920;12.050;2023-08-31T08:33:07;98386.28;;;26.48;38.33
13124;BME280;6627;50.920;12.050;2023-08-31T08:35:36;98252.00;;;25.28;39.34
13124;BME280;6627;50.920;12.050;2023-08-31T08:38:05;98398.13;;;26.52;38.27
13124;BME280;6627;50.920;12.050;2023-08-31T08:40:34;98205.22;;;25.68;38.26
13124;BME280;6627;50.920;12.050;2023-08-31T08:43:06;98398.19;;;27.09;37.84
13124;BME280;6627;50.920;12.050;2023-08-31T08:45:37;98378.88;;;27.22;36.87
13124;BME280;6627;50.920;12.050;2023-08-31T08:48:08;98390.28;;;27.55;36.57
13124;BME280;6627;50.920;12.050;2023-08-31T08:50:37;98326.19;;;27.15;36.63
13124;BME280;6627;50.920;12.050;2023-08-31T08:53:05;98355.56;;;27.16;37.28
13124;BME280;6627;50.920;12.050;2023-08-31T08:55:34;98357.94;;;27.41;36.90
13124;BME280;6627;50.920;12.050;2023-08-31T08:58:02;98343.72;;;27.08;37.26
13124;BME280;6627;50.920;12.050;2023-08-31T09:00:30;98323.47;;;26.57;38.42
13124;BME280;6627;50.920;12.050;2023-08-31T09:03:00;98334.63;;;26.54;38.87
13124;BME280;6627;50.920;12.050;2023-08-31T09:05:31;98444.88;;;27.72;37.06
13124;BME280;6627;50.920;12.050;2023-08-31T09:08:03;98309.56;;;26.84;37.09
13124;BME280;6627;50.920;12.050;2023-08-31T09:10:37;98233.56;;;25.86;38.19
13124;BME280;6627;50.920;12.050;2023-08-31T09:13:09;98235.31;;;26.04;38.04
13124;BME280;6627;50.920;12.050;2023-08-31T09:15:40;98357.59;;;27.12;37.36
13124;BME280;6627;50.920;12.050;2023-08-31T09:18:09;98350.25;;;27.49;36.27
13124;BME280;6627;50.920;12.050;2023-08-31T09:20:45;98219.19;;;26.22;36.47
13124;BME280;6627;50.920;12.050;2023-08-31T09:23:13;98159.16;;;25.74;36.72
13124;BME280;6627;50.920;12.050;2023-08-31T09:25:46;98264.00;;;26.51;36.91
13124;BME280;6627;50.920;12.050;2023-08-31T09:28:15;98303.00;;;26.44;37.59
13124;BME280;6627;50.920;12.050;2023-08-31T09:30:46;98352.03;;;26.58;38.20
13124;BME280;6627;50.920;12.050;2023-08-31T09:33:16;98405.03;;;26.36;39.78
13124;BME280;6627;50.920;12.050;2023-08-31T09:35:49;98473.78;;;26.97;39.46
13124;BME280;6627;50.920;12.050;2023-08-31T09:38:18;98287.91;;;25.80;39.28
13124;BME280;6627;50.920;12.050;2023-08-31T09:40:47;98416.84;;;26.10;40.69
13124;BME280;6627;50.920;12.050;2023-08-31T09:43:19;98421.09;;;26.56;39.76
13124;BME280;6627;50.920;12.050;2023-08-31T09:45:48;98375.81;;;25.90;40.88
13124;BME280;6627;50.920;12.050;2023-08-31T09:48:17;98445.31;;;26.55;40.18
13124;BME280;6627;50.920;12.050;2023-08-31T09:50:45;98410.53;;;26.44;40.22
13124;BME280;6627;50.920;12.050;2023-08-31T09:53:16;98400.19;;;26.10;40.94
13124;BME280;6627;50.920;12.050;2023-08-31T09:55:46;98382.50;;;25.52;41.69
13124;BME280;6627;50.920;12.050;2023-08-31T09:58:18;98529.16;;;27.15;40.14
13124;BME280;6627;50.920;12.050;2023-08-31T10:00:48;98432.34;;;26.41;40.60
13124;BME280;6627;50.920;12.050;2023-08-31T10:03:16;98587.88;;;27.82;39.51
13124;BME280;6627;50.920;12.050;2023-08-31T10:05:45;98472.78;;;27.65;37.94
13124;BME280;6627;50.920;12.050;2023-08-31T10:08:14;98378.41;;;26.73;38.74
13124;BME280;6627;50.920;12.050;2023-08-31T10:10:43;98516.66;;;28.08;37.86
13124;BME280;6627;50.920;12.050;2023-08-31T10:13:13;98451.78;;;27.87;37.63
13124;BME280;6627;50.920;12.050;2023-08-31T10:15:43;98386.72;;;26.73;39.27
13124;BME280;6627;50.920;12.050;2023-08-31T10:18:10;98505.78;;;27.94;38.48
13124;BME280;6627;50.920;12.050;2023-08-31T10:20:42;98342.03;;;27.41;36.86
13124;BME280;6627;50.920;12.050;2023-08-31T10:23:10;98447.31;;;28.37;35.86
13124;BME280;6627;50.920;12.050;2023-08-31T10:26:00;98410.59;;;28.62;35.18
13124;BME280;6627;50.920;12.050;2023-08-31T10:28:42;98242.16;;;27.90;34.06
13124;BME280;6627;50.920;12.050;2023-08-31T10:31:15;98301.81;;;28.29;34.58
13124;BME280;6627;50.920;12.050;2023-08-31T10:33:43;98372.66;;;28.84;34.27
13124;BME280;6627;50.920;12.050;2023-08-31T10:36:13;98224.22;;;28.28;33.42
13124;BME280;6627;50.920;12.050;2023-08-31T10:38:42;98194.38;;;28.12;33.40
13124;BME280;6627;50.920;12.050;2023-08-31T10:41:19;98148.56;;;27.97;32.67
13124;BME280;6627;50.920;12.050;2023-08-31T10:43:50;98076.38;;;27.13;34.08
13124;BME280;6627;50.920;12.050;2023-08-31T10:46:26;98196.06;;;27.89;33.88
13124;BME280;6627;50.920;12.050;2023-08-31T10:48:55;98150.72;;;27.69;33.41
13124;BME280;6627;50.920;12.050;2023-08-31T10:51:24;98197.38;;;28.37;32.47
13124;BME280;6627;50.920;12.050;2023-08-31T10:53:59;98145.06;;;27.76;33.32
13124;BME280;6627;50.920;12.050;2023-08-31T10:56:31;98144.19;;;27.59;33.30
13124;BME280;6627;50.920;12.050;2023-08-31T10:59:02;98098.69;;;27.50;33.21
13124;BME280;6627;50.920;12.050;2023-08-31T11:01:53;98177.25;;;28.30;32.22
13124;BME280;6627;50.920;12.050;2023-08-31T11:04:22;98238.34;;;28.73;32.54
13124;BME280;6627;50.920;12.050;2023-08-31T11:09:32;98180.34;;;28.52;32.59
13124;BME280;6627;50.920;12.050;2023-08-31T11:12:01;98260.66;;;29.06;32.57
13124;BME280;6627;50.920;12.050;2023-08-31T11:14:30;98197.94;;;28.65;32.43
13124;BME280;6627;50.920;12.050;2023-08-31T11:16:59;98208.38;;;28.61;32.84
13124;BME280;6627;50.920;12.050;2023-08-31T11:19:29;98230.16;;;28.99;31.89
13124;BME280;6627;50.920;12.050;2023-08-31T11:21:57;98250.50;;;29.28;31.82
13124;BME280;6627;50.920;12.050;2023-08-31T11:24:25;98067.47;;;28.60;31.06
13124;BME280;6627;50.920;12.050;2023-08-31T11:26:54;98140.59;;;28.97;31.37
13124;BME280;6627;50.920;12.050;2023-08-31T11:29:22;98179.94;;;29.15;31.61
13124;BME280;6627;50.920;12.050;2023-08-31T11:31:51;98141.09;;;28.91;31.52
13124;BME280;6627;50.920;12.050;2023-08-31T11:34:19;98193.53;;;29.13;31.92
13124;BME280;6627;50.920;12.050;2023-08-31T11:36:47;98045.03;;;28.34;31.35
13124;BME280;6627;50.920;12.050;2023-08-31T11:39:17;98141.38;;;28.81;31.60
13124;BME280;6627;50.920;12.050;2023-08-31T11:41:45;98036.69;;;28.34;31.56
13124;BME280;6627;50.920;12.050;2023-08-31T11:44:15;98146.47;;;29.15;30.89
13124;BME280;6627;50.920;12.050;2023-08-31T11:46:45;98112.72;;;28.64;31.42
13124;BME280;6627;50.920;12.050;2023-08-31T11:49:16;98010.88;;;27.49;32.38
13124;BME280;6627;50.920;12.050;2023-08-31T11:51:46;98015.66;;;26.92;33.62
13124;BME280;6627;50.920;12.050;2023-08-31T11:54:16;98054.91;;;26.04;36.76
13124;BME280;6627;50.920;12.050;2023-08-31T11:56:45;98194.56;;;26.24;37.71
13124;BME280;6627;50.920;12.050;2023-08-31T11:59:17;98192.66;;;26.48;36.45
13124;BME280;6627;50.920;12.050;2023-08-31T12:01:47;98129.69;;;25.57;37.46
13124;BME280;6627;50.920;12.050;2023-08-31T12:04:19;98153.66;;;26.55;35.34
13124;BME280;6627;50.920;12.050;2023-08-31T12:06:50;98300.91;;;27.76;35.02
13124;BME280;6627;50.920;12.050;2023-08-31T12:09:20;98289.97;;;28.05;34.60
13124;BME280;6627;50.920;12.050;2023-08-31T12:11:50;98316.81;;;28.35;34.18
13124;BME280;6627;50.920;12.050;2023-08-31T12:14:22;98151.53;;;27.50;33.55
13124;BME280;6627;50.920;12.050;2023-08-31T12:16:50;98149.72;;;28.32;31.78
13124;BME280;6627;50.920;12.050;2023-08-31T12:19:19;98322.06;;;29.68;31.56
13124;BME280;6627;50.920;12.050;2023-08-31T12:21:46;98060.94;;;27.49;32.94
13124;BME280;6627;50.920;12.050;2023-08-31T12:24:17;98104.38;;;27.99;32.28
13124;BME280;6627;50.920;12.050;2023-08-31T12:26:45;98220.72;;;28.76;32.52
13124;BME280;6627;50.920;12.050;2023-08-31T12:29:12;98143.94;;;28.43;32.19
13124;BME280;6627;50.920;12.050;2023-08-31T12:31:39;98135.59;;;28.43;31.84
13124;BME280;6627;50.920;12.050;2023-08-31T12:34:07;98288.78;;;29.73;31.26
13124;BME280;6627;50.920;12.050;2023-08-31T12:36:36;97985.34;;;27.54;32.27
13124;BME280;6627;50.920;12.050;2023-08-31T12:39:06;98252.38;;;29.48;31.91
13124;BME280;6627;50.920;12.050;2023-08-31T12:41:36;98161.63;;;29.14;31.20
13124;BME280;6627;50.920;12.050;2023-08-31T12:44:04;97962.75;;;27.84;31.34
13124;BME280;6627;50.920;12.050;2023-08-31T12:46:32;98068.09;;;28.19;31.65
13124;BME280;6627;50.920;12.050;2023-08-31T12:49:00;98185.03;;;29.33;30.89
13124;BME280;6627;50.920;12.050;2023-08-31T12:51:30;98182.38;;;29.71;30.10
13124;BME280;6627;50.920;12.050;2023-08-31T12:53:59;97997.38;;;28.16;30.87
13124;BME280;6627;50.920;12.050;2023-08-31T12:56:26;98104.50;;;29.06;30.42
13124;BME280;6627;50.920;12.050;2023-08-31T12:58:54;98223.47;;;30.25;29.76
13124;BME280;6627;50.920;12.050;2023-08-31T13:01:21;98113.88;;;29.54;29.88
13124;BME280;6627;50.920;12.050;2023-08-31T13:03:49;98171.94;;;30.26;29.32
13124;BME280;6627;50.920;12.050;2023-08-31T13:06:18;98078.06;;;29.65;29.34
13124;BME280;6627;50.920;12.050;2023-08-31T13:08:46;97983.16;;;29.14;29.48
13124;BME280;6627;50.920;12.050;2023-08-31T13:11:14;98073.53;;;29.29;30.25
13124;BME280;6627;50.920;12.050;2023-08-31T13:13:42;98177.53;;;30.26;29.78